Roundup, MT

1:38 AM MST on March 04, 2015 (GMT -0700)
NonFedAWOS ROUNDUP MT US SUPERAWOS | Change Station
CLOSE
Current Station
Personal Weather Station
Location: Roundup, MT
Elevation: 3491 ft
Nearby Weather Stations

Elev 3491 ft 46.47 °N, 108.54 °W | Updated 43 minutes ago

Mostly Cloudy
Mostly Cloudy
9 °F
Feels Like 0 °F
N
5
Wind Variable Wind from WNW
Gusts 0.0 mph

Today
High -- | Low -- °F
--% Chance of Precip.
Yesterday
High -- | Low -- °F
Precip. -- in
6:48 AM 6:04 PM
Waxing Gibbous, 98% visible
Pressure 30.30 in
Visibility 10.0 miles
Clouds Few 6500 ft
Mostly Cloudy 10000 ft
Windchill 0 °F
Dew Point -13 °F
Humidity 36%
Rainfall -999.00 in
Snow Depth Not available.
UV 0 out of 12
Pollen .30 out of 12
Air Quality Not available.
Flu Activity Not available.
METAR KBIL 040753Z 32012KT 10SM FEW065 BKN100 M12/M22 A3012 RMK AO2 SLP258 T11171217

More Conditions Fewer Conditions

Pressure 30.30 in
Visibility 10.0 miles
Clouds Few 6500 ft
Mostly Cloudy 10000 ft
Windchill 0 °F
Dew Point -13 °F
Humidity 36%
Rainfall -999.00 in
Snow Depth Not available.
UV 0 out of 12
Pollen .30 out of 12
Air Quality Not available.
Flu Activity Not available.
METAR KBIL 040753Z 32012KT 10SM FEW065 BKN100 M12/M22 A3012 RMK AO2 SLP258 T11171217

More Conditions Fewer Conditions

10-Day Weather Forecast

Almanac

Astronomy

Mar. 04, 2015 Rise Set
Actual Time
Civil Twilight
Nautical Twilight
Astronomical Twilight
Moon
Length of Visible Light
Length of Day
Tomorrow will be .
, % of the Moon is Illuminated

Today's Extremes

State Highs State Lows

Community

WunderPhotos

Upload Photos

1,802,416 photos uploaded!

WunderBlogs® & News

Nearby

Air Quality

  Air Quality AQ Index Pollutant
Not available.

Snow Depth

Station Depth Elevation

Earthquake Activity

City Distance Mag. Time & Date
Minimum magnitude displayed is 2.5.

Coastal Water Temperatures

Place Temperature

Nearby Weather Stations